createdAt,value
2023-01-17T00:02:32.878Z,97634.34
2023-01-17T00:07:53.189Z,97617.63
2023-01-17T00:13:03.256Z,97621.03
2023-01-17T00:18:04.848Z,97634.16
2023-01-17T00:23:32.738Z,97627.47
2023-01-17T00:28:39.549Z,97639.16
2023-01-17T00:33:41.665Z,97639.56
2023-01-17T00:38:43.213Z,97650.06
2023-01-17T00:44:03.453Z,97651.56
2023-01-17T00:49:24.122Z,97658.63
2023-01-17T00:54:44.117Z,97650.41
2023-01-17T01:00:04.362Z,97645.94
2023-01-17T01:05:25.369Z,97641.81
2023-01-17T01:10:48.085Z,97659.47
2023-01-17T01:16:08.441Z,97665.09
2023-01-17T01:21:28.682Z,97659.78
2023-01-17T01:26:48.657Z,97660.59
2023-01-17T01:32:09.070Z,97657.84
2023-01-17T01:37:10.602Z,97663.09
2023-01-17T01:42:17.802Z,97673.75
2023-01-17T01:47:29.366Z,97671.72
2023-01-17T01:52:33.640Z,97687.78
2023-01-17T01:57:40.754Z,97693.06
2023-01-17T02:02:44.353Z,97706.81
2023-01-17T02:07:52.341Z,97722.13
2023-01-17T02:12:55.855Z,97736.78
2023-01-17T02:18:05.748Z,97728.00
2023-01-17T02:23:22.823Z,97699.63
2023-01-17T02:28:44.480Z,97664.06
2023-01-17T02:34:18.249Z,97636.78
2023-01-17T02:39:22.922Z,97623.16
2023-01-17T02:44:24.481Z,97626.09
2023-01-17T02:49:30.341Z,97623.13
2023-01-17T02:55:02.673Z,97619.59
2023-01-17T03:00:27.726Z,97625.19
2023-01-17T03:05:38.053Z,97633.94
2023-01-17T03:10:41.530Z,97634.06
2023-01-17T03:15:43.283Z,97637.56
2023-01-17T03:20:44.997Z,97642.41
2023-01-17T03:25:46.538Z,97649.22
2023-01-17T03:30:48.150Z,97650.94
2023-01-17T03:35:49.808Z,97653.16
2023-01-17T03:40:51.547Z,97655.84
2023-01-17T03:46:05.346Z,97656.78
2023-01-17T03:51:07.067Z,97657.84
2023-01-17T03:56:09.078Z,97658.66
2023-01-17T04:01:10.914Z,97647.56
2023-01-17T04:06:12.536Z,97654.41
2023-01-17T04:11:14.121Z,97650.50
2023-01-17T04:16:18.191Z,97640.41
2023-01-17T04:21:19.816Z,97631.66
2023-01-17T04:26:21.484Z,97604.09
2023-01-17T04:31:23.155Z,97594.28
2023-01-17T04:36:24.712Z,97588.28
2023-01-17T04:41:26.258Z,97596.25
2023-01-17T04:46:28.432Z,97594.03
2023-01-17T04:51:30.038Z,97594.50
2023-01-17T04:56:31.588Z,97596.97
2023-01-17T05:01:33.261Z,97608.19
2023-01-17T05:06:34.905Z,97612.91
2023-01-17T05:11:36.489Z,97626.00
2023-01-17T05:16:38.017Z,97640.75
2023-01-17T05:21:39.669Z,97647.19
2023-01-17T05:26:43.107Z,97664.41
2023-01-17T05:31:44.678Z,97670.63
2023-01-17T05:36:46.337Z,97688.44
2023-01-17T05:41:47.869Z,97708.50
2023-01-17T05:46:49.396Z,97720.25
2023-01-17T05:51:51.437Z,97756.06
2023-01-17T05:56:53.914Z,97800.31
2023-01-17T06:01:57.919Z,97833.56
2023-01-17T06:06:59.448Z,97836.59
2023-01-17T06:12:01.039Z,97852.03
2023-01-17T06:17:02.600Z,97843.09
2023-01-17T06:22:07.367Z,97833.28
2023-01-17T06:27:10.541Z,97803.28
2023-01-17T06:32:14.092Z,97784.69
2023-01-17T06:37:15.642Z,97765.63
2023-01-17T06:42:17.341Z,97760.13
2023-01-17T06:47:18.891Z,97775.47
2023-01-17T06:52:20.426Z,97794.19
2023-01-17T06:57:22.522Z,97812.47
2023-01-17T07:02:25.336Z,97830.75
2023-01-17T07:07:26.937Z,97826.78
2023-01-17T07:12:30.651Z,97818.25
2023-01-17T07:17:32.293Z,97801.47
2023-01-17T07:22:33.954Z,97778.63
2023-01-17T07:27:35.559Z,97747.34
2023-01-17T07:32:37.329Z,97727.06
2023-01-17T07:37:39.139Z,97702.94
2023-01-17T07:42:40.688Z,97703.38
2023-01-17T07:47:42.248Z,97741.34
2023-01-17T07:52:43.968Z,97746.50
2023-01-17T07:57:49.661Z,97766.91
2023-01-17T08:02:56.057Z,97862.00
2023-01-17T08:07:57.728Z,97986.78
2023-01-17T08:12:59.404Z,98064.31
2023-01-17T08:18:01.049Z,98077.72
2023-01-17T08:23:02.601Z,98068.72
2023-01-17T08:28:04.611Z,98034.31
2023-01-17T08:33:06.150Z,98011.94
2023-01-17T08:38:08.763Z,98003.63
2023-01-17T08:43:10.298Z,98026.56
2023-01-17T08:48:11.805Z,98050.78
2023-01-17T08:53:13.422Z,98094.84
2023-01-17T08:58:15.065Z,98109.75
2023-01-17T09:03:19.317Z,98084.78
2023-01-17T09:08:20.877Z,97863.09
2023-01-17T09:13:22.545Z,97833.50
2023-01-17T09:18:25.722Z,97802.97
2023-01-17T09:23:29.552Z,97801.66
2023-01-17T09:28:31.229Z,97783.22
2023-01-17T09:33:32.772Z,97756.41
2023-01-17T09:38:34.564Z,97712.06
2023-01-17T09:43:46.042Z,97689.22
2023-01-17T09:48:49.660Z,97650.50
2023-01-17T09:53:53.852Z,97611.84
2023-01-17T09:59:20.151Z,97569.88
2023-01-17T10:04:30.476Z,97514.84
2023-01-17T10:10:17.418Z,97499.16
2023-01-17T10:15:37.514Z,97446.41
2023-01-17T10:21:03.568Z,97329.28
2023-01-17T10:26:25.708Z,97313.72
2023-01-17T10:31:33.797Z,97290.47
2023-01-17T10:36:41.832Z,97306.81
2023-01-17T10:41:46.321Z,97277.06
2023-01-17T10:46:56.107Z,97260.31
2023-01-17T10:52:12.870Z,97246.28
2023-01-17T10:57:24.957Z,97200.75
2023-01-17T11:02:35.901Z,97203.22
2023-01-17T11:07:40.052Z,97189.97
2023-01-17T11:12:46.217Z,97127.84
2023-01-17T11:17:53.102Z,97041.50
2023-01-17T11:23:23.708Z,97035.19
2023-01-17T11:28:30.569Z,96928.19
2023-01-17T11:33:35.232Z,96794.63
2023-01-17T11:38:37.048Z,96744.69
2023-01-17T11:43:54.255Z,96745.28
2023-01-17T11:48:59.277Z,96706.41
2023-01-17T11:54:22.498Z,96690.44
2023-01-17T11:59:31.730Z,96676.34
2023-01-17T12:05:01.114Z,96762.41
2023-01-17T12:10:09.390Z,96679.88
2023-01-17T12:15:13.808Z,96734.81
2023-01-17T12:20:53.054Z,96663.84
2023-01-17T12:26:25.749Z,96712.25
2023-01-17T12:32:01.841Z,96657.75
2023-01-17T12:37:17.089Z,96669.19
2023-01-17T12:42:23.048Z,96561.75
2023-01-17T12:47:25.636Z,96582.72
2023-01-17T12:52:54.645Z,96525.16
2023-01-17T12:58:00.085Z,96638.91
2023-01-17T13:03:11.824Z,96670.97
2023-01-17T13:08:28.670Z,96669.56
2023-01-17T13:13:31.352Z,96653.47
2023-01-17T13:18:35.369Z,96736.59
2023-01-17T13:24:02.137Z,96783.69
2023-01-17T13:29:25.100Z,96723.88
2023-01-17T13:34:42.014Z,96695.13
2023-01-17T13:39:49.581Z,96705.84
2023-01-17T13:44:51.768Z,96723.56
2023-01-17T13:49:56.484Z,96745.63
2023-01-17T13:54:59.632Z,96747.31
2023-01-17T14:00:16.419Z,96673.94
2023-01-17T14:05:20.532Z,96710.84
2023-01-17T14:10:40.903Z,96721.44
2023-01-17T14:15:51.015Z,96757.75
2023-01-17T14:21:20.645Z,96716.00
2023-01-17T14:26:37.375Z,96713.28
2023-01-17T14:31:39.180Z,96752.31
2023-01-17T14:36:40.763Z,96762.69
2023-01-17T14:41:43.430Z,96677.88
2023-01-17T14:46:49.031Z,96707.19
2023-01-17T14:52:04.706Z,96764.41
2023-01-17T14:57:29.544Z,96748.41
2023-01-17T15:02:31.819Z,96751.97
2023-01-17T15:07:33.472Z,96786.69
2023-01-17T15:12:36.730Z,96795.09
2023-01-17T15:17:38.449Z,96825.72
2023-01-17T15:22:40.198Z,96848.50
2023-01-17T15:27:41.759Z,96840.38
2023-01-17T15:32:47.813Z,96837.94
2023-01-17T15:37:54.648Z,96843.34
2023-01-17T15:43:01.033Z,96815.47
2023-01-17T15:48:33.937Z,96812.75
2023-01-17T15:53:38.237Z,96831.44
2023-01-17T15:58:39.855Z,96855.53
2023-01-17T16:03:52.511Z,96868.22
2023-01-17T16:08:54.535Z,96889.59
2023-01-17T16:13:56.257Z,96904.75
2023-01-17T16:19:00.621Z,96915.31
2023-01-17T16:24:03.122Z,96920.97
2023-01-17T16:29:04.655Z,96915.84
2023-01-17T16:34:12.011Z,96910.69
2023-01-17T16:39:14.894Z,96909.06
2023-01-17T16:44:16.753Z,96918.75
2023-01-17T16:49:19.057Z,96927.41
2023-01-17T16:54:20.591Z,96935.50
2023-01-17T16:59:22.359Z,96958.44
2023-01-17T17:04:23.902Z,96962.50
2023-01-17T17:09:25.595Z,96967.31
2023-01-17T17:14:27.688Z,96997.06
2023-01-17T17:19:30.088Z,96998.97
2023-01-17T17:24:31.866Z,97018.44
2023-01-17T17:29:33.418Z,97015.78
2023-01-17T17:34:36.804Z,97031.75
2023-01-17T17:39:38.838Z,97029.31
2023-01-17T17:44:40.378Z,97029.31
2023-01-17T17:49:42.034Z,97037.69
2023-01-17T17:54:43.713Z,97044.44
2023-01-17T17:59:45.251Z,97040.91
2023-01-17T18:04:47.124Z,97059.53
2023-01-17T18:09:48.719Z,97074.47
2023-01-17T18:14:50.378Z,97091.78
2023-01-17T18:19:52.615Z,97084.78
2023-01-17T18:24:54.203Z,97103.47
2023-01-17T18:29:55.801Z,97103.22
2023-01-17T18:34:57.385Z,97111.94
2023-01-17T18:39:59.049Z,97127.91
2023-01-17T18:45:00.622Z,97140.09
2023-01-17T18:50:02.156Z,97163.84
2023-01-17T18:55:05.495Z,97193.03
2023-01-17T19:00:09.812Z,97225.66
2023-01-17T19:05:11.924Z,97260.16
2023-01-17T19:10:13.470Z,97271.88
2023-01-17T19:15:15.048Z,97306.91
2023-01-17T19:20:16.908Z,97310.31
2023-01-17T19:25:18.438Z,97328.75
2023-01-17T19:30:20.777Z,97346.03
2023-01-17T19:35:23.137Z,97365.56
2023-01-17T19:40:25.728Z,97378.56
2023-01-17T19:45:27.483Z,97377.72
2023-01-17T19:50:28.997Z,97378.13
2023-01-17T19:55:30.539Z,97372.69
2023-01-17T20:00:45.924Z,97351.31
2023-01-17T20:05:56.525Z,97366.28
2023-01-17T20:11:09.870Z,97364.91
2023-01-17T20:16:14.444Z,97376.88
2023-01-17T20:21:19.109Z,97360.03
2023-01-17T20:26:24.220Z,97366.94
2023-01-17T20:31:27.008Z,97370.72
2023-01-17T20:36:30.058Z,97373.16
2023-01-17T20:41:34.750Z,97363.78
2023-01-17T20:46:41.035Z,97360.16
2023-01-17T20:51:44.606Z,97375.28
2023-01-17T20:56:47.771Z,97374.72
2023-01-17T21:01:50.105Z,97381.28
2023-01-17T21:06:53.183Z,97381.97
2023-01-17T21:12:00.893Z,97387.59
2023-01-17T21:17:02.507Z,97384.78
2023-01-17T21:22:05.470Z,97408.19
2023-01-17T21:27:07.014Z,97435.47
2023-01-17T21:32:08.684Z,97444.72
2023-01-17T21:37:12.607Z,97430.66
2023-01-17T21:42:14.273Z,97422.00
2023-01-17T21:47:15.815Z,97415.19
2023-01-17T21:52:17.550Z,97422.31
2023-01-17T21:57:40.174Z,97419.75
2023-01-17T22:02:44.057Z,97436.59
2023-01-17T22:08:04.525Z,97431.66
2023-01-17T22:13:06.064Z,97411.22
2023-01-17T22:18:07.805Z,97397.03
2023-01-17T22:23:10.007Z,97383.00
2023-01-17T22:28:11.584Z,97391.53
2023-01-17T22:33:13.573Z,97389.44
2023-01-17T22:38:15.234Z,97390.94
2023-01-17T22:43:19.181Z,97389.19
2023-01-17T22:48:20.772Z,97395.38
2023-01-17T22:53:22.336Z,97393.75
2023-01-17T22:58:24.082Z,97386.72
2023-01-17T23:03:25.648Z,97388.38
2023-01-17T23:08:27.174Z,97388.81
2023-01-17T23:13:28.714Z,97390.91
2023-01-17T23:18:48.934Z,97391.84
2023-01-17T23:23:50.601Z,97385.44
2023-01-17T23:28:52.126Z,97388.72
2023-01-17T23:33:53.647Z,97390.47
2023-01-17T23:38:55.159Z,97385.91
2023-01-17T23:43:58.193Z,97400.16
2023-01-17T23:49:02.186Z,97400.63
2023-01-17T23:54:05.296Z,97393.34
2023-01-17T23:59:06.993Z,97400.84
